createdAt,value
2023-05-08T00:00:30.288Z,29.11
2023-05-08T00:01:30.325Z,29.17
2023-05-08T00:02:30.393Z,29.15
2023-05-08T00:03:30.531Z,29.14
2023-05-08T00:04:30.468Z,29.23
2023-05-08T00:05:30.467Z,29.16
2023-05-08T00:06:30.530Z,29.21
2023-05-08T00:07:30.516Z,29.21
2023-05-08T00:08:30.599Z,29.19
2023-05-08T00:09:30.598Z,29.19
2023-05-08T00:10:30.629Z,29.23
2023-05-08T00:11:30.712Z,29.20
2023-05-08T00:12:30.746Z,29.23
2023-05-08T00:13:30.789Z,29.25
2023-05-08T00:14:30.819Z,29.23
2023-05-08T00:15:30.848Z,29.22
2023-05-08T00:16:30.925Z,29.28
2023-05-08T00:17:30.975Z,29.26
2023-05-08T00:18:30.979Z,29.25
2023-05-08T00:19:31.007Z,29.28
2023-05-08T00:20:31.042Z,29.26
2023-05-08T00:21:31.096Z,29.30
2023-05-08T00:22:31.129Z,29.29
2023-05-08T00:23:31.207Z,29.32
2023-05-08T00:24:31.221Z,29.27
2023-05-08T00:25:31.228Z,29.36
2023-05-08T00:26:31.286Z,29.23
2023-05-08T00:27:31.339Z,29.30
2023-05-08T00:28:31.377Z,29.26
2023-05-08T00:29:31.407Z,29.33
2023-05-08T00:30:31.441Z,29.36
2023-05-08T00:31:31.470Z,29.40
2023-05-08T00:32:31.556Z,29.33
2023-05-08T00:33:31.585Z,29.36
2023-05-08T00:34:31.628Z,29.37
2023-05-08T00:35:31.686Z,29.32
2023-05-08T00:36:31.703Z,29.37
2023-05-08T00:37:31.793Z,29.33
2023-05-08T00:38:31.804Z,29.40
2023-05-08T00:39:31.864Z,29.37
2023-05-08T00:40:31.921Z,29.38
2023-05-08T00:41:31.905Z,29.41
2023-05-08T00:42:31.987Z,29.45
2023-05-08T00:43:32.045Z,29.40
2023-05-08T00:44:32.115Z,29.40
2023-05-08T00:45:32.157Z,29.41
2023-05-08T00:46:32.213Z,29.40
2023-05-08T00:47:32.322Z,29.37
2023-05-08T00:48:32.300Z,29.48
2023-05-08T00:49:32.361Z,29.45
2023-05-08T00:50:32.404Z,29.47
2023-05-08T00:51:32.419Z,29.44
2023-05-08T00:52:32.521Z,29.44
2023-05-08T00:53:32.515Z,29.51
2023-05-08T00:54:32.620Z,29.48
2023-05-08T00:55:32.632Z,29.46
2023-05-08T00:56:32.701Z,29.48
2023-05-08T00:57:32.691Z,29.52
2023-05-08T00:58:32.761Z,29.48
2023-05-08T00:59:32.797Z,29.50
2023-05-08T01:00:32.828Z,29.48
2023-05-08T01:01:32.906Z,29.48
2023-05-08T01:02:32.967Z,29.50
2023-05-08T01:03:33.099Z,29.51
2023-05-08T01:04:33.060Z,29.52
2023-05-08T01:05:33.087Z,29.52
2023-05-08T01:06:33.150Z,29.53
2023-05-08T01:07:33.189Z,29.49
2023-05-08T01:08:33.208Z,29.52
2023-05-08T01:09:33.286Z,29.53
2023-05-08T01:10:33.337Z,29.56
2023-05-08T01:11:33.382Z,29.59
2023-05-08T01:12:33.432Z,29.53
2023-05-08T01:13:33.493Z,29.56
2023-05-08T01:14:33.548Z,29.58
2023-05-08T01:15:33.595Z,29.56
2023-05-08T01:16:33.786Z,29.55
2023-05-08T01:17:33.664Z,29.58
2023-05-08T01:18:33.752Z,29.56
2023-05-08T01:19:33.777Z,29.64
2023-05-08T01:20:33.861Z,29.59
2023-05-08T01:21:33.864Z,29.64
2023-05-08T01:22:33.987Z,29.60
2023-05-08T01:23:34.039Z,29.64
2023-05-08T01:24:34.014Z,29.56
2023-05-08T01:25:34.101Z,29.64
2023-05-08T01:26:34.162Z,29.64
2023-05-08T01:27:34.216Z,29.63
2023-05-08T01:28:34.286Z,29.64
2023-05-08T01:29:34.309Z,29.63
2023-05-08T01:30:34.394Z,29.66
2023-05-08T01:31:34.442Z,29.64
2023-05-08T01:32:34.474Z,29.67
2023-05-08T01:33:34.566Z,29.63
2023-05-08T01:34:34.558Z,29.67
2023-05-08T01:35:34.629Z,29.64
2023-05-08T01:36:34.724Z,29.67
2023-05-08T01:37:34.768Z,29.63
2023-05-08T01:38:34.814Z,29.70
2023-05-08T01:39:34.852Z,29.70
2023-05-08T01:40:34.913Z,29.60
2023-05-08T01:41:34.950Z,29.71
2023-05-08T01:42:35.021Z,29.71
2023-05-08T01:43:35.079Z,29.74
2023-05-08T01:44:35.156Z,29.74
2023-05-08T01:45:35.186Z,29.71
2023-05-08T01:46:35.289Z,29.71
2023-05-08T01:47:35.355Z,29.74
2023-05-08T01:48:35.357Z,29.75
2023-05-08T01:49:35.426Z,29.72
2023-05-08T01:50:35.543Z,29.68
2023-05-08T01:51:35.515Z,29.70
2023-05-08T01:52:35.584Z,29.79
2023-05-08T01:53:35.667Z,29.79
2023-05-08T01:54:35.723Z,29.74
2023-05-08T01:55:35.800Z,29.75
2023-05-08T01:56:35.848Z,29.76
2023-05-08T01:57:35.914Z,29.77
2023-05-08T01:58:35.947Z,29.79
2023-05-08T01:59:36.023Z,29.81
2023-05-08T02:00:36.090Z,29.81
2023-05-08T02:01:36.149Z,29.77
2023-05-08T02:02:36.321Z,29.78
2023-05-08T02:03:36.316Z,29.78
2023-05-08T02:04:36.327Z,29.79
2023-05-08T02:05:36.361Z,29.81
2023-05-08T02:06:36.432Z,29.73
2023-05-08T02:07:36.505Z,29.82
2023-05-08T02:08:36.536Z,29.80
2023-05-08T02:09:36.600Z,29.88
2023-05-08T02:10:36.651Z,29.85
2023-05-08T02:11:36.770Z,29.86
2023-05-08T02:12:36.862Z,29.85
2023-05-08T02:13:36.867Z,29.82
2023-05-08T02:14:36.955Z,29.82
2023-05-08T02:15:36.976Z,29.83
2023-05-08T02:16:37.046Z,29.83
2023-05-08T02:17:37.114Z,29.86
2023-05-08T02:18:37.169Z,29.83
2023-05-08T02:19:37.213Z,29.79
2023-05-08T02:20:37.265Z,29.80
2023-05-08T02:21:37.327Z,29.85
2023-05-08T02:22:37.415Z,29.89
2023-05-08T02:23:37.467Z,29.87
2023-05-08T02:24:37.533Z,29.87
2023-05-08T02:25:37.603Z,29.87
2023-05-08T02:26:37.646Z,29.86
2023-05-08T02:27:37.703Z,29.86
2023-05-08T02:28:37.760Z,29.89
2023-05-08T02:29:37.787Z,29.87
2023-05-08T02:30:37.872Z,29.90
2023-05-08T02:31:37.960Z,29.87
2023-05-08T02:32:37.978Z,29.86
2023-05-08T02:33:38.041Z,29.88
2023-05-08T02:34:40.962Z,29.93
2023-05-08T02:35:39.100Z,29.91
2023-05-08T02:36:38.119Z,29.88
2023-05-08T02:37:38.074Z,29.98
2023-05-08T02:38:38.062Z,29.93
2023-05-08T02:39:38.046Z,29.94
2023-05-08T02:40:38.041Z,29.91
2023-05-08T02:41:38.096Z,29.96
2023-05-08T02:42:38.056Z,29.96
2023-05-08T02:43:38.127Z,29.93
2023-05-08T02:44:38.057Z,29.93
2023-05-08T02:45:38.133Z,29.91
2023-05-08T02:46:38.253Z,30.00
2023-05-08T02:47:38.262Z,29.98
2023-05-08T02:48:38.244Z,29.97
2023-05-08T02:49:38.282Z,29.98
2023-05-08T02:50:38.340Z,29.98
2023-05-08T02:51:38.411Z,29.98
2023-05-08T02:52:38.471Z,30.01
2023-05-08T02:53:38.527Z,30.00
2023-05-08T02:54:38.622Z,29.97
2023-05-08T02:55:38.624Z,30.01
2023-05-08T02:56:38.674Z,30.00
2023-05-08T02:57:38.695Z,29.96
2023-05-08T02:58:38.736Z,29.98
2023-05-08T02:59:38.740Z,29.94
2023-05-08T03:00:38.789Z,29.98
2023-05-08T03:01:38.830Z,30.01
2023-05-08T03:02:38.924Z,30.04
2023-05-08T03:03:38.933Z,29.99
2023-05-08T03:04:38.867Z,29.99
2023-05-08T03:05:38.931Z,29.98
2023-05-08T03:06:38.983Z,30.04
2023-05-08T03:07:39.043Z,29.99
2023-05-08T03:08:39.051Z,30.01
2023-05-08T03:09:39.106Z,30.04
2023-05-08T03:10:39.111Z,30.01
2023-05-08T03:11:39.138Z,30.05
2023-05-08T03:12:40.655Z,30.04
2023-05-08T03:13:39.149Z,29.99
2023-05-08T03:14:39.141Z,30.02
2023-05-08T03:15:39.150Z,30.04
2023-05-08T03:16:39.164Z,30.02
2023-05-08T03:17:39.208Z,30.06
2023-05-08T03:18:39.125Z,30.06
2023-05-08T03:19:39.092Z,30.01
2023-05-08T03:20:39.095Z,30.06
2023-05-08T03:21:39.084Z,30.08
2023-05-08T03:22:39.086Z,30.06
2023-05-08T03:23:39.091Z,30.11
2023-05-08T03:24:39.111Z,30.03
2023-05-08T03:25:39.058Z,30.05
2023-05-08T03:26:39.078Z,30.09
2023-05-08T03:27:39.035Z,30.09
2023-05-08T03:28:39.022Z,30.08
2023-05-08T03:29:39.046Z,30.09
2023-05-08T03:30:39.024Z,30.12
2023-05-08T03:31:39.105Z,30.10
2023-05-08T03:32:39.049Z,30.06
2023-05-08T03:33:38.998Z,30.09
2023-05-08T03:34:39.020Z,30.10
2023-05-08T03:35:38.972Z,30.16
2023-05-08T03:36:38.996Z,30.16
2023-05-08T03:37:38.970Z,30.10
2023-05-08T03:38:38.938Z,30.09
2023-05-08T03:39:39.000Z,30.06
2023-05-08T03:40:39.026Z,30.07
2023-05-08T03:41:38.965Z,30.12
2023-05-08T03:42:38.914Z,30.10
2023-05-08T03:43:38.927Z,30.16
2023-05-08T03:44:38.934Z,30.16
2023-05-08T03:45:38.946Z,30.12
2023-05-08T03:46:38.977Z,30.16
2023-05-08T03:47:38.934Z,30.16
2023-05-08T03:48:38.916Z,30.14
2023-05-08T03:49:38.960Z,30.12
2023-05-08T03:50:38.874Z,30.13
2023-05-08T03:51:38.854Z,30.15
2023-05-08T03:52:38.865Z,30.10
2023-05-08T03:53:38.929Z,30.13
2023-05-08T03:54:38.846Z,30.13
2023-05-08T03:55:38.847Z,30.16
2023-05-08T03:56:38.874Z,30.13
2023-05-08T03:57:38.873Z,30.17
2023-05-08T03:58:38.884Z,30.18
2023-05-08T03:59:38.847Z,30.20
2023-05-08T04:00:38.839Z,30.20
2023-05-08T04:01:38.910Z,30.20
2023-05-08T04:02:40.805Z,30.34
2023-05-08T04:03:38.890Z,30.21
2023-05-08T04:04:38.817Z,30.33
2023-05-08T04:05:38.831Z,30.44
2023-05-08T04:06:48.682Z,30.71
2023-05-08T04:07:39.792Z,30.70
2023-05-08T04:08:38.797Z,30.74
2023-05-08T04:09:38.813Z,31.04
2023-05-08T04:10:38.748Z,31.10
2023-05-08T04:11:38.765Z,31.11
2023-05-08T04:12:38.906Z,31.29
2023-05-08T04:13:38.776Z,31.27
2023-05-08T04:14:38.805Z,31.45
2023-05-08T04:15:38.771Z,31.25
2023-05-08T04:16:38.834Z,31.27
2023-05-08T04:17:38.787Z,31.30
2023-05-08T04:18:38.747Z,31.37
2023-05-08T04:19:38.832Z,31.36
2023-05-08T04:20:38.892Z,31.26
2023-05-08T04:21:38.954Z,31.49
2023-05-08T04:22:38.949Z,31.53
2023-05-08T04:23:39.006Z,31.65
2023-05-08T04:24:39.065Z,31.51
2023-05-08T04:25:39.128Z,31.55
2023-05-08T04:26:39.186Z,31.72
2023-05-08T04:27:39.224Z,31.81
2023-05-08T04:28:39.300Z,31.78
2023-05-08T04:29:39.310Z,31.81
2023-05-08T04:30:39.375Z,31.67
2023-05-08T04:31:39.451Z,31.58
2023-05-08T04:32:40.910Z,31.45
2023-05-08T04:33:39.440Z,31.41
2023-05-08T04:34:39.433Z,31.34
2023-05-08T04:35:39.449Z,31.19
2023-05-08T04:36:39.455Z,31.18
2023-05-08T04:37:39.428Z,30.99
2023-05-08T04:38:39.468Z,30.99
2023-05-08T04:39:39.789Z,30.95
2023-05-08T04:40:39.504Z,30.90
2023-05-08T04:41:39.511Z,30.84
2023-05-08T04:42:39.509Z,30.78
2023-05-08T04:43:39.517Z,30.74
2023-05-08T04:44:39.503Z,30.71
2023-05-08T04:45:39.573Z,30.68
2023-05-08T04:46:39.640Z,30.67
2023-05-08T04:47:39.615Z,30.62
2023-05-08T04:48:39.602Z,30.62
2023-05-08T04:49:39.597Z,30.59
2023-05-08T04:50:39.611Z,30.52
2023-05-08T04:51:39.655Z,30.51
2023-05-08T04:52:39.669Z,30.51
2023-05-08T04:53:39.629Z,30.47
2023-05-08T04:54:39.691Z,30.47
2023-05-08T04:55:39.706Z,30.46
2023-05-08T04:56:39.698Z,30.41
2023-05-08T04:57:39.699Z,30.44
2023-05-08T04:58:39.739Z,30.44
2023-05-08T04:59:39.774Z,30.45
2023-05-08T05:00:39.792Z,30.42
2023-05-08T05:01:39.826Z,30.42
2023-05-08T05:02:39.832Z,30.39
2023-05-08T05:03:39.816Z,30.42
2023-05-08T05:04:39.799Z,30.41
2023-05-08T05:05:39.812Z,30.44
2023-05-08T05:06:39.814Z,30.41
2023-05-08T05:07:39.868Z,30.41
2023-05-08T05:08:39.876Z,30.42
2023-05-08T05:09:39.918Z,30.39
2023-05-08T05:10:39.884Z,30.39
2023-05-08T05:11:39.857Z,30.36
2023-05-08T05:12:39.958Z,30.39
2023-05-08T05:13:39.924Z,30.42
2023-05-08T05:14:39.952Z,30.45
2023-05-08T05:15:39.951Z,30.42
2023-05-08T05:16:40.047Z,30.46
2023-05-08T05:17:40.038Z,30.42
2023-05-08T05:18:39.995Z,30.46
2023-05-08T05:19:40.065Z,30.43
2023-05-08T05:20:40.075Z,30.43
2023-05-08T05:21:40.068Z,30.46
2023-05-08T05:22:40.098Z,30.45
2023-05-08T05:23:40.135Z,30.52
2023-05-08T05:24:40.126Z,30.47
2023-05-08T05:25:40.187Z,30.46
2023-05-08T05:26:40.214Z,30.50
2023-05-08T05:27:40.225Z,30.52
2023-05-08T05:28:40.264Z,30.51
2023-05-08T05:29:40.268Z,30.50
2023-05-08T05:30:40.256Z,30.49
2023-05-08T05:31:40.476Z,30.53
2023-05-08T05:32:40.398Z,30.57
2023-05-08T05:33:40.404Z,30.61
2023-05-08T05:34:40.424Z,30.62
2023-05-08T05:35:40.465Z,30.95
2023-05-08T05:36:40.483Z,31.16
2023-05-08T05:37:40.536Z,31.82
2023-05-08T05:38:40.594Z,32.38
2023-05-08T05:39:40.599Z,32.48
2023-05-08T05:40:40.658Z,32.69
2023-05-08T05:41:40.672Z,33.00
2023-05-08T05:42:40.723Z,33.33
2023-05-08T05:43:40.739Z,33.37
2023-05-08T05:44:40.779Z,33.82
2023-05-08T05:45:40.798Z,33.86
2023-05-08T05:46:43.546Z,33.89
2023-05-08T05:47:40.897Z,33.92
2023-05-08T05:48:40.882Z,34.03
2023-05-08T05:49:40.822Z,34.15
2023-05-08T05:50:40.813Z,34.14
2023-05-08T05:51:40.855Z,34.17
2023-05-08T05:52:40.789Z,34.36
2023-05-08T05:53:41.093Z,34.67
2023-05-08T05:54:40.805Z,34.64
2023-05-08T05:55:40.821Z,34.72
2023-05-08T05:56:40.846Z,35.05
2023-05-08T05:57:41.146Z,34.88
2023-05-08T05:58:41.209Z,34.88
2023-05-08T05:59:40.750Z,34.98
2023-05-08T06:00:40.752Z,34.97
2023-05-08T06:01:40.804Z,34.96
2023-05-08T06:02:41.218Z,35.07
2023-05-08T06:03:40.908Z,35.14
2023-05-08T06:04:40.708Z,35.07
2023-05-08T06:05:40.713Z,35.28
2023-05-08T06:06:40.738Z,35.36
2023-05-08T06:07:40.692Z,35.13
2023-05-08T06:08:41.109Z,35.17
2023-05-08T06:09:40.716Z,35.36
2023-05-08T06:10:40.712Z,35.44
2023-05-08T06:11:40.682Z,35.28
2023-05-08T06:12:40.697Z,35.25
2023-05-08T06:13:40.673Z,35.04
2023-05-08T06:14:40.664Z,35.21
2023-05-08T06:15:40.643Z,35.06
2023-05-08T06:16:40.694Z,35.05
2023-05-08T06:17:40.611Z,35.14
2023-05-08T06:18:40.683Z,35.28
2023-05-08T06:19:41.112Z,35.04
2023-05-08T06:20:40.617Z,34.99
2023-05-08T06:21:40.634Z,35.08
2023-05-08T06:22:40.584Z,35.09
2023-05-08T06:23:40.701Z,35.34
2023-05-08T06:24:40.714Z,35.17
2023-05-08T06:25:40.762Z,35.15
2023-05-08T06:26:40.818Z,35.45
2023-05-08T06:27:40.856Z,35.36
2023-05-08T06:28:40.937Z,35.19
2023-05-08T06:29:40.949Z,35.12
2023-05-08T06:30:41.089Z,35.22
2023-05-08T06:31:41.059Z,35.32
2023-05-08T06:32:41.614Z,35.24
2023-05-08T06:33:41.144Z,35.55
2023-05-08T06:34:41.216Z,35.30
2023-05-08T06:35:41.593Z,35.35
2023-05-08T06:36:41.299Z,35.13
2023-05-08T06:37:41.307Z,35.02
2023-05-08T06:38:41.613Z,34.87
2023-05-08T06:39:42.086Z,34.70
2023-05-08T06:40:41.355Z,34.62
2023-05-08T06:41:41.642Z,34.81
2023-05-08T06:42:41.493Z,34.89
2023-05-08T06:43:41.494Z,34.80
2023-05-08T06:44:41.501Z,34.80
2023-05-08T06:45:41.515Z,34.86
2023-05-08T06:46:41.609Z,35.01
2023-05-08T06:47:41.594Z,35.05
2023-05-08T06:48:41.595Z,35.05
2023-05-08T06:49:41.596Z,35.26
2023-05-08T06:50:41.604Z,35.22
2023-05-08T06:51:41.624Z,35.18
2023-05-08T06:52:41.627Z,35.26
2023-05-08T06:53:41.640Z,35.19
2023-05-08T06:54:41.648Z,35.19
2023-05-08T06:55:41.644Z,35.25
2023-05-08T06:56:41.662Z,35.33
2023-05-08T06:57:41.666Z,35.38
2023-05-08T06:58:41.675Z,35.28
2023-05-08T06:59:41.776Z,35.33
2023-05-08T07:00:41.793Z,35.28
2023-05-08T07:01:41.947Z,35.39
2023-05-08T07:02:41.944Z,35.49
2023-05-08T07:03:41.967Z,35.33
2023-05-08T07:04:42.077Z,35.28
2023-05-08T07:05:42.129Z,35.62
2023-05-08T07:06:42.151Z,35.48
2023-05-08T07:07:42.237Z,35.52
2023-05-08T07:08:42.349Z,35.45
2023-05-08T07:09:42.372Z,35.45
2023-05-08T07:10:42.390Z,35.52
2023-05-08T07:11:42.516Z,35.57
2023-05-08T07:12:42.531Z,35.43
2023-05-08T07:13:42.541Z,35.38
2023-05-08T07:14:42.581Z,35.58
2023-05-08T07:15:42.776Z,35.41
2023-05-08T07:16:42.752Z,35.67
2023-05-08T07:17:42.756Z,35.42
2023-05-08T07:18:42.812Z,35.60
2023-05-08T07:19:42.864Z,35.46
2023-05-08T07:20:42.952Z,35.49
2023-05-08T07:21:42.994Z,35.61
2023-05-08T07:22:43.044Z,35.49
2023-05-08T07:23:43.124Z,35.51
2023-05-08T07:24:43.208Z,35.44
2023-05-08T07:25:43.286Z,35.46
2023-05-08T07:26:43.327Z,35.57
2023-05-08T07:27:43.487Z,35.64
2023-05-08T07:28:43.439Z,35.52
2023-05-08T07:29:43.531Z,35.43
2023-05-08T07:30:43.578Z,35.61
2023-05-08T07:31:43.661Z,35.53
2023-05-08T07:32:43.714Z,35.92
2023-05-08T07:33:43.745Z,36.04
2023-05-08T07:34:43.752Z,35.92
2023-05-08T07:35:44.062Z,35.92
2023-05-08T07:36:43.869Z,35.74
2023-05-08T07:37:43.926Z,35.77
2023-05-08T07:38:43.948Z,35.92
2023-05-08T07:39:44.049Z,35.76
2023-05-08T07:40:44.104Z,35.58
2023-05-08T07:41:44.141Z,35.67
2023-05-08T07:42:44.273Z,35.56
2023-05-08T07:43:44.231Z,35.73
2023-05-08T07:44:54.366Z,35.80
2023-05-08T07:45:45.272Z,35.93
2023-05-08T07:46:44.405Z,35.86
2023-05-08T07:47:44.296Z,35.89
2023-05-08T07:48:44.247Z,35.90
2023-05-08T07:49:44.369Z,35.93
2023-05-08T07:50:44.217Z,35.90
2023-05-08T07:51:44.232Z,35.94
2023-05-08T07:52:44.201Z,35.77
2023-05-08T07:53:44.207Z,35.75
2023-05-08T07:54:44.216Z,35.82
2023-05-08T07:55:44.218Z,35.84
2023-05-08T07:56:44.205Z,35.85
2023-05-08T07:57:44.544Z,35.72
2023-05-08T07:58:44.272Z,35.88
2023-05-08T07:59:44.329Z,35.99
2023-05-08T08:00:44.339Z,35.95
2023-05-08T08:01:44.454Z,36.00
2023-05-08T08:02:44.586Z,36.12
2023-05-08T08:03:44.434Z,36.02
2023-05-08T08:04:44.418Z,36.03
2023-05-08T08:05:44.457Z,35.99
2023-05-08T08:06:44.466Z,35.84
2023-05-08T08:07:44.509Z,35.81
2023-05-08T08:08:44.538Z,35.80
2023-05-08T08:09:44.600Z,35.78
2023-05-08T08:10:44.604Z,35.82
2023-05-08T08:11:44.593Z,35.69
2023-05-08T08:12:44.689Z,35.76
2023-05-08T08:13:44.743Z,35.72
2023-05-08T08:14:44.743Z,35.58
2023-05-08T08:17:42.660Z,35.88
2023-05-08T08:18:42.551Z,36.06
2023-05-08T08:19:42.560Z,35.86
2023-05-08T08:20:42.534Z,35.86
2023-05-08T08:21:42.528Z,35.84
2023-05-08T08:22:42.533Z,35.87
2023-05-08T08:23:42.754Z,36.00
2023-05-08T08:24:42.552Z,35.86
2023-05-08T08:25:42.508Z,35.79
2023-05-08T08:26:42.514Z,35.57
2023-05-08T08:27:42.511Z,35.47
2023-05-08T08:28:42.736Z,35.44
2023-05-08T08:29:42.795Z,35.34
2023-05-08T08:30:42.559Z,35.51
2023-05-08T08:31:42.661Z,35.34
2023-05-08T08:32:42.444Z,35.30
2023-05-08T08:33:42.451Z,35.35
2023-05-08T08:34:42.456Z,35.28
2023-05-08T08:35:42.472Z,35.27
2023-05-08T08:36:42.417Z,35.16
2023-05-08T08:37:42.741Z,35.21
2023-05-08T08:38:42.439Z,35.19
2023-05-08T08:39:42.439Z,35.19
2023-05-08T08:40:42.394Z,35.17
2023-05-08T08:41:42.394Z,35.07
2023-05-08T08:42:42.722Z,36.45
2023-05-08T08:43:42.390Z,35.50
2023-05-08T08:44:42.374Z,35.53
2023-05-08T08:45:42.382Z,35.78
2023-05-08T08:46:42.413Z,35.82
2023-05-08T08:47:42.412Z,35.87
2023-05-08T08:48:42.664Z,35.76
2023-05-08T08:49:42.535Z,35.74
2023-05-08T08:50:42.725Z,35.80
2023-05-08T08:51:42.480Z,35.90
2023-05-08T08:52:42.533Z,35.95
2023-05-08T08:53:42.537Z,35.88
2023-05-08T08:54:42.713Z,35.84
2023-05-08T08:55:42.551Z,35.85
2023-05-08T08:56:42.579Z,35.85
2023-05-08T08:57:42.725Z,35.93
2023-05-08T08:58:42.570Z,35.84
2023-05-08T08:59:42.587Z,35.84
2023-05-08T09:00:42.594Z,35.80
2023-05-08T09:01:42.629Z,35.89
2023-05-08T09:02:42.664Z,35.83
2023-05-08T09:03:42.747Z,35.88
2023-05-08T09:04:42.670Z,35.80
2023-05-08T09:05:42.767Z,35.78
2023-05-08T09:06:42.664Z,35.68
2023-05-08T09:07:42.722Z,35.66
2023-05-08T09:08:42.761Z,35.79
2023-05-08T09:09:42.820Z,35.68
2023-05-08T09:10:42.857Z,35.57
2023-05-08T09:11:42.907Z,35.67
2023-05-08T09:12:42.999Z,35.55
2023-05-08T09:13:43.029Z,35.62
2023-05-08T09:14:43.101Z,35.62
2023-05-08T09:15:43.126Z,35.56
2023-05-08T09:16:43.321Z,35.54
2023-05-08T09:17:43.330Z,35.61
2023-05-08T09:18:43.332Z,35.48
2023-05-08T09:19:43.389Z,35.53
2023-05-08T09:20:43.430Z,35.49
2023-05-08T09:21:43.577Z,35.56
2023-05-08T09:22:43.730Z,35.57
2023-05-08T09:23:43.706Z,35.55
2023-05-08T09:24:43.628Z,35.78
2023-05-08T09:25:43.681Z,35.62
2023-05-08T09:26:43.746Z,35.63
2023-05-08T09:27:44.222Z,35.76
2023-05-08T09:28:43.817Z,35.88
2023-05-08T09:29:43.832Z,35.79
2023-05-08T09:30:44.176Z,35.82
2023-05-08T09:31:43.989Z,35.87
2023-05-08T09:32:44.054Z,35.33
2023-05-08T09:33:44.052Z,34.52
2023-05-08T09:34:44.051Z,34.40
2023-05-08T09:35:44.188Z,34.47
2023-05-08T09:36:44.105Z,34.30
2023-05-08T09:37:44.265Z,34.25
2023-05-08T09:38:44.178Z,34.06
2023-05-08T09:39:44.717Z,34.07
2023-05-08T09:40:45.220Z,34.38
2023-05-08T09:41:44.714Z,34.16
2023-05-08T09:42:44.307Z,33.74
2023-05-08T09:43:44.371Z,33.74
2023-05-08T09:44:44.441Z,33.71
2023-05-08T09:45:44.510Z,33.71
2023-05-08T09:46:44.705Z,33.61
2023-05-08T09:47:44.653Z,33.65
2023-05-08T09:48:44.692Z,33.65
2023-05-08T09:49:44.784Z,33.56
2023-05-08T09:50:45.703Z,33.81
2023-05-08T09:51:44.820Z,34.23
2023-05-08T09:52:44.831Z,34.36
2023-05-08T09:53:44.975Z,34.65
2023-05-08T09:54:44.835Z,34.70
2023-05-08T09:55:45.156Z,34.67
2023-05-08T09:56:44.929Z,34.57
2023-05-08T09:57:44.933Z,34.77
2023-05-08T09:58:44.962Z,34.75
2023-05-08T09:59:45.056Z,34.98
2023-05-08T10:00:45.098Z,34.86
2023-05-08T10:01:45.121Z,35.03
2023-05-08T10:02:45.206Z,34.85
2023-05-08T10:03:45.235Z,34.95
2023-05-08T10:04:45.318Z,35.13
2023-05-08T10:05:45.702Z,35.08
2023-05-08T10:06:45.300Z,35.10
2023-05-08T10:07:45.335Z,35.10
2023-05-08T10:08:45.347Z,35.14
2023-05-08T10:09:50.738Z,35.18
2023-05-08T10:10:46.346Z,35.15
2023-05-08T10:11:45.363Z,35.22
2023-05-08T10:12:45.380Z,35.58
2023-05-08T10:13:45.484Z,35.23
2023-05-08T10:14:46.982Z,35.53
2023-05-08T10:15:45.326Z,35.35
2023-05-08T10:16:45.305Z,34.70
2023-05-08T10:17:45.326Z,34.73
2023-05-08T10:18:45.279Z,34.30
2023-05-08T10:19:45.290Z,33.44
2023-05-08T10:20:45.290Z,33.37
2023-05-08T10:21:45.249Z,33.14
2023-05-08T10:22:45.322Z,33.26
2023-05-08T10:23:45.248Z,33.20
2023-05-08T10:24:45.261Z,33.12
2023-05-08T10:25:45.296Z,33.08
2023-05-08T10:26:53.685Z,32.98
2023-05-08T10:27:46.257Z,33.16
2023-05-08T10:28:45.244Z,33.35
2023-05-08T10:29:45.661Z,33.64
2023-05-08T10:30:45.311Z,33.98
2023-05-08T10:31:45.312Z,34.02
2023-05-08T10:32:45.258Z,33.67
2023-05-08T10:33:45.236Z,33.45
2023-05-08T10:34:45.707Z,33.55
2023-05-08T10:35:45.210Z,33.56
2023-05-08T10:36:45.209Z,33.62
2023-05-08T10:37:45.216Z,33.79
2023-05-08T10:38:45.214Z,34.09
2023-05-08T10:39:45.293Z,34.23
2023-05-08T10:40:45.238Z,34.29
2023-05-08T10:41:45.360Z,34.36
2023-05-08T10:42:45.351Z,34.58
2023-05-08T10:43:45.374Z,34.63
2023-05-08T10:44:45.457Z,34.41
2023-05-08T10:45:45.728Z,34.40
2023-05-08T10:46:45.552Z,34.35
2023-05-08T10:47:45.590Z,34.35
2023-05-08T10:48:45.550Z,34.25
2023-05-08T10:49:45.540Z,34.51
2023-05-08T10:50:45.543Z,34.42
2023-05-08T10:51:45.552Z,34.48
2023-05-08T10:52:45.548Z,34.19
2023-05-08T10:53:45.526Z,34.13
2023-05-08T10:54:45.587Z,33.95
2023-05-08T10:55:45.575Z,34.03
2023-05-08T10:56:45.594Z,33.95
2023-05-08T10:57:45.651Z,33.94
2023-05-08T10:58:45.643Z,33.88
2023-05-08T10:59:45.677Z,33.86
2023-05-08T11:00:45.664Z,33.86
2023-05-08T11:01:45.681Z,33.78
2023-05-08T11:02:45.762Z,33.81
2023-05-08T11:03:45.807Z,33.74
2023-05-08T11:04:45.807Z,33.77
2023-05-08T11:05:45.822Z,33.88
2023-05-08T11:06:45.951Z,33.80
2023-05-08T11:07:45.844Z,33.88
2023-05-08T11:08:45.858Z,33.92
2023-05-08T11:09:45.870Z,33.72
2023-05-08T11:10:45.883Z,33.58
2023-05-08T11:11:45.886Z,33.72
2023-05-08T11:12:45.931Z,33.71
2023-05-08T11:13:45.982Z,33.73
2023-05-08T11:14:45.924Z,33.74
2023-05-08T11:15:46.053Z,33.73
2023-05-08T11:16:46.057Z,33.51
2023-05-08T11:17:46.038Z,33.56
2023-05-08T11:18:49.449Z,33.66
2023-05-08T11:19:45.934Z,34.12
2023-05-08T11:20:45.940Z,33.87
2023-05-08T11:21:45.929Z,33.86
2023-05-08T11:22:45.919Z,33.72
2023-05-08T11:23:46.134Z,33.54
2023-05-08T11:24:45.877Z,33.44
2023-05-08T11:25:45.948Z,33.23
2023-05-08T11:26:45.869Z,33.11
2023-05-08T11:27:45.896Z,33.02
2023-05-08T11:28:45.878Z,32.86
2023-05-08T11:29:46.127Z,32.70
2023-05-08T11:30:45.876Z,32.64
2023-05-08T11:31:45.900Z,32.50
2023-05-08T11:32:45.970Z,32.37
2023-05-08T11:33:45.854Z,32.29
2023-05-08T11:34:45.898Z,32.15
2023-05-08T11:35:45.848Z,32.03
2023-05-08T11:36:45.858Z,32.15
2023-05-08T11:37:45.816Z,31.99
2023-05-08T11:38:45.803Z,31.89
2023-05-08T11:39:45.818Z,31.86
2023-05-08T11:40:45.849Z,31.79
2023-05-08T11:41:45.780Z,31.75
2023-05-08T11:42:45.799Z,31.68
2023-05-08T11:43:45.818Z,31.67
2023-05-08T11:44:45.794Z,31.66
2023-05-08T11:45:45.836Z,31.54
2023-05-08T11:46:45.844Z,31.54
2023-05-08T11:47:45.851Z,31.52
2023-05-08T11:48:45.765Z,31.48
2023-05-08T11:49:45.805Z,31.41
2023-05-08T11:50:45.736Z,31.33
2023-05-08T11:51:45.724Z,31.28
2023-05-08T11:52:45.773Z,31.25
2023-05-08T11:53:45.713Z,31.21
2023-05-08T11:54:45.719Z,31.28
2023-05-08T11:55:45.726Z,31.14
2023-05-08T11:56:47.610Z,31.11
2023-05-08T11:57:45.707Z,31.07
2023-05-08T11:58:45.690Z,31.14
2023-05-08T11:59:45.677Z,31.05
2023-05-08T12:00:45.689Z,31.08
2023-05-08T12:01:53.520Z,30.99
2023-05-08T12:02:47.196Z,30.99
2023-05-08T12:03:45.767Z,30.94
2023-05-08T12:04:45.694Z,30.95
2023-05-08T12:05:45.635Z,30.91
2023-05-08T12:06:45.648Z,30.84
2023-05-08T12:07:45.660Z,30.78
2023-05-08T12:08:45.629Z,30.77
2023-05-08T12:09:45.618Z,30.75
2023-05-08T12:10:46.797Z,30.69
2023-05-08T12:11:45.655Z,30.68
2023-05-08T12:12:45.711Z,30.65
2023-05-08T12:13:45.599Z,30.60
2023-05-08T12:14:45.702Z,30.58
2023-05-08T12:15:45.611Z,30.60
2023-05-08T12:16:45.649Z,30.54
2023-05-08T12:17:45.636Z,30.54
2023-05-08T12:18:45.609Z,30.50
2023-05-08T12:19:45.567Z,30.52
2023-05-08T12:20:45.545Z,30.47
2023-05-08T12:21:45.569Z,30.43
2023-05-08T12:22:45.537Z,30.46
2023-05-08T12:23:45.574Z,30.46
2023-05-08T12:24:45.508Z,30.43
2023-05-08T12:25:45.574Z,30.40
2023-05-08T12:26:45.486Z,30.39
2023-05-08T12:27:45.537Z,30.38
2023-05-08T12:28:45.513Z,30.41
2023-05-08T12:29:45.474Z,30.41
2023-05-08T12:30:45.502Z,30.38
2023-05-08T12:31:45.578Z,30.37
2023-05-08T12:32:45.514Z,30.35
2023-05-08T12:33:45.473Z,30.38
2023-05-08T12:34:45.506Z,30.37
2023-05-08T12:35:45.511Z,30.40
2023-05-08T12:36:45.464Z,30.32
2023-05-08T12:37:45.466Z,30.35
2023-05-08T12:38:45.432Z,30.33
2023-05-08T12:39:45.408Z,30.34
2023-05-08T12:40:45.429Z,30.26
2023-05-08T12:41:45.447Z,30.30
2023-05-08T12:42:45.436Z,30.26
2023-05-08T12:43:45.409Z,30.28
2023-05-08T12:44:45.414Z,30.24
2023-05-08T12:45:45.415Z,30.24
2023-05-08T12:46:45.423Z,30.28
2023-05-08T12:47:45.415Z,30.29
2023-05-08T12:48:45.366Z,30.27
2023-05-08T12:49:45.468Z,30.25
2023-05-08T12:50:45.383Z,30.29
2023-05-08T12:51:45.383Z,30.22
2023-05-08T12:52:45.379Z,30.28
2023-05-08T12:53:45.446Z,30.29
2023-05-08T12:54:45.344Z,30.24